sensor_id;sensor_type;location;lat;lon;timestamp;P1;durP1;ratioP1;P2;durP2;ratioP2
13415;SDS011;6779;50.150;8.680;2023-03-01T00:00:11;18.17;;;12.37;;
13415;SDS011;6779;50.150;8.680;2023-03-01T00:02:36;20.67;;;12.47;;
13415;SDS011;6779;50.150;8.680;2023-03-01T00:05:02;20.20;;;12.77;;
13415;SDS011;6779;50.150;8.680;2023-03-01T00:07:28;16.50;;;11.70;;
13415;SDS011;6779;50.150;8.680;2023-03-01T00:09:53;16.20;;;12.53;;
13415;SDS011;6779;50.150;8.680;2023-03-01T00:12:19;17.60;;;13.37;;
13415;SDS011;6779;50.150;8.680;2023-03-01T00:14:44;17.60;;;12.03;;
13415;SDS011;6779;50.150;8.680;2023-03-01T00:17:10;17.70;;;12.67;;
13415;SDS011;6779;50.150;8.680;2023-03-01T00:19:35;18.97;;;13.23;;
13415;SDS011;6779;50.150;8.680;2023-03-01T00:22:00;18.80;;;13.40;;
13415;SDS011;6779;50.150;8.680;2023-03-01T00:24:25;17.73;;;12.10;;
13415;SDS011;6779;50.150;8.680;2023-03-01T00:26:54;17.97;;;12.27;;
13415;SDS011;6779;50.150;8.680;2023-03-01T00:29:23;19.87;;;12.80;;
13415;SDS011;6779;50.150;8.680;2023-03-01T00:31:49;18.87;;;12.87;;
13415;SDS011;6779;50.150;8.680;2023-03-01T00:34:15;18.87;;;12.87;;
13415;SDS011;6779;50.150;8.680;2023-03-01T00:36:40;16.13;;;12.73;;
13415;SDS011;6779;50.150;8.680;2023-03-01T00:39:07;17.13;;;12.63;;
13415;SDS011;6779;50.150;8.680;2023-03-01T00:41:35;17.70;;;12.63;;
13415;SDS011;6779;50.150;8.680;2023-03-01T00:44:00;19.07;;;12.43;;
13415;SDS011;6779;50.150;8.680;2023-03-01T00:46:26;19.80;;;12.67;;
13415;SDS011;6779;50.150;8.680;2023-03-01T00:48:52;19.13;;;12.67;;
13415;SDS011;6779;50.150;8.680;2023-03-01T00:51:19;20.10;;;13.17;;
13415;SDS011;6779;50.150;8.680;2023-03-01T00:53:47;18.97;;;12.77;;
13415;SDS011;6779;50.150;8.680;2023-03-01T00:56:18;16.63;;;12.70;;
13415;SDS011;6779;50.150;8.680;2023-03-01T00:58:43;17.87;;;13.23;;
13415;SDS011;6779;50.150;8.680;2023-03-01T01:03:41;18.40;;;13.80;;
13415;SDS011;6779;50.150;8.680;2023-03-01T01:06:18;18.03;;;12.90;;
13415;SDS011;6779;50.150;8.680;2023-03-01T01:08:45;19.27;;;12.97;;
13415;SDS011;6779;50.150;8.680;2023-03-01T01:11:11;20.90;;;14.47;;
13415;SDS011;6779;50.150;8.680;2023-03-01T01:13:37;17.90;;;12.73;;
13415;SDS011;6779;50.150;8.680;2023-03-01T01:16:02;18.73;;;13.10;;
13415;SDS011;6779;50.150;8.680;2023-03-01T01:18:28;17.13;;;12.80;;
13415;SDS011;6779;50.150;8.680;2023-03-01T01:20:53;18.77;;;12.70;;
13415;SDS011;6779;50.150;8.680;2023-03-01T01:23:18;17.60;;;12.40;;
13415;SDS011;6779;50.150;8.680;2023-03-01T01:25:44;19.13;;;14.17;;
13415;SDS011;6779;50.150;8.680;2023-03-01T01:28:09;16.67;;;12.80;;
13415;SDS011;6779;50.150;8.680;2023-03-01T01:30:34;18.13;;;13.47;;
13415;SDS011;6779;50.150;8.680;2023-03-01T01:33:00;17.83;;;13.63;;
13415;SDS011;6779;50.150;8.680;2023-03-01T01:35:25;20.67;;;13.20;;
13415;SDS011;6779;50.150;8.680;2023-03-01T01:37:50;20.90;;;13.47;;
13415;SDS011;6779;50.150;8.680;2023-03-01T01:40:15;16.60;;;13.43;;
13415;SDS011;6779;50.150;8.680;2023-03-01T01:42:41;20.57;;;14.00;;
13415;SDS011;6779;50.150;8.680;2023-03-01T01:48:04;16.70;;;12.73;;
13415;SDS011;6779;50.150;8.680;2023-03-01T01:50:31;19.80;;;13.30;;
13415;SDS011;6779;50.150;8.680;2023-03-01T01:53:08;20.90;;;14.20;;
13415;SDS011;6779;50.150;8.680;2023-03-01T01:55:34;18.23;;;13.00;;
13415;SDS011;6779;50.150;8.680;2023-03-01T01:58:02;18.70;;;13.57;;
13415;SDS011;6779;50.150;8.680;2023-03-01T02:00:30;19.47;;;14.23;;
13415;SDS011;6779;50.150;8.680;2023-03-01T02:03:02;19.37;;;13.47;;
13415;SDS011;6779;50.150;8.680;2023-03-01T02:05:44;18.50;;;13.63;;
13415;SDS011;6779;50.150;8.680;2023-03-01T02:08:13;20.37;;;14.00;;
13415;SDS011;6779;50.150;8.680;2023-03-01T02:10:40;20.77;;;13.80;;
13415;SDS011;6779;50.150;8.680;2023-03-01T02:13:05;19.27;;;13.50;;
13415;SDS011;6779;50.150;8.680;2023-03-01T02:15:32;19.30;;;14.27;;
13415;SDS011;6779;50.150;8.680;2023-03-01T02:17:58;17.23;;;13.47;;
13415;SDS011;6779;50.150;8.680;2023-03-01T02:20:34;20.27;;;14.57;;
13415;SDS011;6779;50.150;8.680;2023-03-01T02:23:03;17.00;;;13.60;;
13415;SDS011;6779;50.150;8.680;2023-03-01T02:28:03;19.30;;;14.47;;
13415;SDS011;6779;50.150;8.680;2023-03-01T02:30:33;23.47;;;15.17;;
13415;SDS011;6779;50.150;8.680;2023-03-01T02:32:59;21.37;;;14.60;;
13415;SDS011;6779;50.150;8.680;2023-03-01T02:35:27;18.83;;;14.03;;
13415;SDS011;6779;50.150;8.680;2023-03-01T02:37:57;20.03;;;14.07;;
13415;SDS011;6779;50.150;8.680;2023-03-01T02:40:25;19.03;;;13.17;;
13415;SDS011;6779;50.150;8.680;2023-03-01T02:42:51;18.30;;;13.60;;
13415;SDS011;6779;50.150;8.680;2023-03-01T02:45:19;23.30;;;15.43;;
13415;SDS011;6779;50.150;8.680;2023-03-01T02:47:44;19.37;;;15.23;;
13415;SDS011;6779;50.150;8.680;2023-03-01T02:50:22;23.00;;;15.60;;
13415;SDS011;6779;50.150;8.680;2023-03-01T02:53:05;19.23;;;14.67;;
13415;SDS011;6779;50.150;8.680;2023-03-01T02:55:34;20.30;;;14.37;;
13415;SDS011;6779;50.150;8.680;2023-03-01T02:57:59;19.50;;;15.00;;
13415;SDS011;6779;50.150;8.680;2023-03-01T03:00:28;21.57;;;14.87;;
13415;SDS011;6779;50.150;8.680;2023-03-01T03:03:04;22.53;;;14.00;;
13415;SDS011;6779;50.150;8.680;2023-03-01T03:05:30;20.80;;;14.33;;
13415;SDS011;6779;50.150;8.680;2023-03-01T03:07:56;21.87;;;15.33;;
13415;SDS011;6779;50.150;8.680;2023-03-01T03:10:24;22.00;;;14.93;;
13415;SDS011;6779;50.150;8.680;2023-03-01T03:12:55;18.00;;;14.27;;
13415;SDS011;6779;50.150;8.680;2023-03-01T03:15:22;19.10;;;14.47;;
13415;SDS011;6779;50.150;8.680;2023-03-01T03:17:48;23.27;;;14.33;;
13415;SDS011;6779;50.150;8.680;2023-03-01T03:20:15;21.60;;;15.10;;
13415;SDS011;6779;50.150;8.680;2023-03-01T03:22:44;24.77;;;16.10;;
13415;SDS011;6779;50.150;8.680;2023-03-01T03:25:13;21.73;;;13.70;;
13415;SDS011;6779;50.150;8.680;2023-03-01T03:27:39;16.57;;;13.03;;
13415;SDS011;6779;50.150;8.680;2023-03-01T03:30:09;21.73;;;15.97;;
13415;SDS011;6779;50.150;8.680;2023-03-01T03:32:37;19.83;;;14.83;;
13415;SDS011;6779;50.150;8.680;2023-03-01T03:35:03;20.70;;;14.77;;
13415;SDS011;6779;50.150;8.680;2023-03-01T03:37:34;21.53;;;15.17;;
13415;SDS011;6779;50.150;8.680;2023-03-01T03:40:21;20.90;;;14.47;;
13415;SDS011;6779;50.150;8.680;2023-03-01T03:42:47;22.30;;;15.03;;
13415;SDS011;6779;50.150;8.680;2023-03-01T03:45:13;20.37;;;14.40;;
13415;SDS011;6779;50.150;8.680;2023-03-01T03:47:38;21.77;;;15.03;;
13415;SDS011;6779;50.150;8.680;2023-03-01T03:50:03;20.27;;;15.00;;
13415;SDS011;6779;50.150;8.680;2023-03-01T03:52:29;22.70;;;15.20;;
13415;SDS011;6779;50.150;8.680;2023-03-01T03:54:54;25.97;;;16.00;;
13415;SDS011;6779;50.150;8.680;2023-03-01T03:57:19;21.20;;;16.13;;
13415;SDS011;6779;50.150;8.680;2023-03-01T03:59:46;23.80;;;16.07;;
13415;SDS011;6779;50.150;8.680;2023-03-01T04:02:11;20.53;;;15.33;;
13415;SDS011;6779;50.150;8.680;2023-03-01T04:04:36;22.23;;;16.03;;
13415;SDS011;6779;50.150;8.680;2023-03-01T04:07:02;24.40;;;16.17;;
13415;SDS011;6779;50.150;8.680;2023-03-01T04:09:27;23.97;;;16.70;;
13415;SDS011;6779;50.150;8.680;2023-03-01T04:11:55;22.60;;;15.27;;
13415;SDS011;6779;50.150;8.680;2023-03-01T04:14:20;22.37;;;15.07;;
13415;SDS011;6779;50.150;8.680;2023-03-01T04:16:45;22.70;;;15.53;;
13415;SDS011;6779;50.150;8.680;2023-03-01T04:19:11;22.00;;;14.90;;
13415;SDS011;6779;50.150;8.680;2023-03-01T04:21:36;24.90;;;16.10;;
13415;SDS011;6779;50.150;8.680;2023-03-01T04:24:01;22.57;;;15.80;;
13415;SDS011;6779;50.150;8.680;2023-03-01T04:26:28;23.53;;;15.80;;
13415;SDS011;6779;50.150;8.680;2023-03-01T04:28:54;23.63;;;15.83;;
13415;SDS011;6779;50.150;8.680;2023-03-01T04:31:19;21.40;;;15.50;;
13415;SDS011;6779;50.150;8.680;2023-03-01T04:33:49;20.47;;;15.57;;
13415;SDS011;6779;50.150;8.680;2023-03-01T04:36:20;22.83;;;16.40;;
13415;SDS011;6779;50.150;8.680;2023-03-01T04:38:49;23.60;;;15.80;;
13415;SDS011;6779;50.150;8.680;2023-03-01T04:41:16;25.67;;;16.27;;
13415;SDS011;6779;50.150;8.680;2023-03-01T04:43:42;26.57;;;17.23;;
13415;SDS011;6779;50.150;8.680;2023-03-01T04:46:08;24.53;;;16.80;;
13415;SDS011;6779;50.150;8.680;2023-03-01T04:48:37;25.97;;;17.17;;
13415;SDS011;6779;50.150;8.680;2023-03-01T04:51:03;24.77;;;16.20;;
13415;SDS011;6779;50.150;8.680;2023-03-01T04:53:29;23.37;;;16.80;;
13415;SDS011;6779;50.150;8.680;2023-03-01T04:55:55;29.50;;;16.90;;
13415;SDS011;6779;50.150;8.680;2023-03-01T04:58:22;23.90;;;16.07;;
13415;SDS011;6779;50.150;8.680;2023-03-01T05:00:48;22.57;;;16.13;;
13415;SDS011;6779;50.150;8.680;2023-03-01T05:03:13;27.17;;;15.80;;
13415;SDS011;6779;50.150;8.680;2023-03-01T05:05:42;25.47;;;16.53;;
13415;SDS011;6779;50.150;8.680;2023-03-01T05:08:09;23.40;;;15.83;;
13415;SDS011;6779;50.150;8.680;2023-03-01T05:10:42;23.47;;;16.77;;
13415;SDS011;6779;50.150;8.680;2023-03-01T05:13:15;24.27;;;16.80;;
13415;SDS011;6779;50.150;8.680;2023-03-01T05:15:46;25.63;;;16.50;;
13415;SDS011;6779;50.150;8.680;2023-03-01T05:18:25;28.17;;;17.33;;
13415;SDS011;6779;50.150;8.680;2023-03-01T05:20:51;25.27;;;16.63;;
13415;SDS011;6779;50.150;8.680;2023-03-01T05:23:17;24.67;;;16.80;;
13415;SDS011;6779;50.150;8.680;2023-03-01T05:25:43;28.93;;;17.23;;
13415;SDS011;6779;50.150;8.680;2023-03-01T05:28:12;24.30;;;16.47;;
13415;SDS011;6779;50.150;8.680;2023-03-01T05:30:38;25.40;;;17.30;;
13415;SDS011;6779;50.150;8.680;2023-03-01T05:33:04;22.50;;;16.60;;
13415;SDS011;6779;50.150;8.680;2023-03-01T05:35:32;25.20;;;17.50;;
13415;SDS011;6779;50.150;8.680;2023-03-01T05:37:57;25.63;;;16.20;;
13415;SDS011;6779;50.150;8.680;2023-03-01T05:40:23;24.03;;;15.83;;
13415;SDS011;6779;50.150;8.680;2023-03-01T05:42:50;27.40;;;16.80;;
13415;SDS011;6779;50.150;8.680;2023-03-01T05:45:20;23.57;;;16.00;;
13415;SDS011;6779;50.150;8.680;2023-03-01T05:47:47;26.17;;;16.80;;
13415;SDS011;6779;50.150;8.680;2023-03-01T05:50:14;26.80;;;17.13;;
13415;SDS011;6779;50.150;8.680;2023-03-01T05:52:48;24.70;;;16.40;;
13415;SDS011;6779;50.150;8.680;2023-03-01T05:55:15;23.03;;;15.80;;
13415;SDS011;6779;50.150;8.680;2023-03-01T05:57:42;24.43;;;16.63;;
13415;SDS011;6779;50.150;8.680;2023-03-01T06:00:08;26.33;;;16.37;;
13415;SDS011;6779;50.150;8.680;2023-03-01T06:02:34;26.63;;;17.00;;
13415;SDS011;6779;50.150;8.680;2023-03-01T06:04:59;23.50;;;16.37;;
13415;SDS011;6779;50.150;8.680;2023-03-01T06:07:24;28.80;;;16.47;;
13415;SDS011;6779;50.150;8.680;2023-03-01T06:09:50;23.47;;;16.63;;
13415;SDS011;6779;50.150;8.680;2023-03-01T06:12:15;26.33;;;16.33;;
13415;SDS011;6779;50.150;8.680;2023-03-01T06:14:40;25.40;;;15.93;;
13415;SDS011;6779;50.150;8.680;2023-03-01T06:17:06;23.93;;;16.50;;
13415;SDS011;6779;50.150;8.680;2023-03-01T06:19:31;25.57;;;16.50;;
13415;SDS011;6779;50.150;8.680;2023-03-01T06:21:56;26.47;;;16.30;;
13415;SDS011;6779;50.150;8.680;2023-03-01T06:24:21;28.43;;;15.97;;
13415;SDS011;6779;50.150;8.680;2023-03-01T06:26:47;28.17;;;16.93;;
13415;SDS011;6779;50.150;8.680;2023-03-01T06:29:12;27.20;;;16.93;;
13415;SDS011;6779;50.150;8.680;2023-03-01T06:31:37;29.50;;;16.63;;
13415;SDS011;6779;50.150;8.680;2023-03-01T06:34:03;29.63;;;17.87;;
13415;SDS011;6779;50.150;8.680;2023-03-01T06:36:28;26.87;;;16.00;;
13415;SDS011;6779;50.150;8.680;2023-03-01T06:38:53;24.23;;;16.30;;
13415;SDS011;6779;50.150;8.680;2023-03-01T06:41:19;30.23;;;18.73;;
13415;SDS011;6779;50.150;8.680;2023-03-01T06:43:44;28.13;;;16.73;;
13415;SDS011;6779;50.150;8.680;2023-03-01T06:46:09;24.97;;;16.23;;
13415;SDS011;6779;50.150;8.680;2023-03-01T06:48:35;25.07;;;16.83;;
13415;SDS011;6779;50.150;8.680;2023-03-01T06:51:00;26.43;;;16.03;;
13415;SDS011;6779;50.150;8.680;2023-03-01T06:53:26;24.03;;;17.20;;
13415;SDS011;6779;50.150;8.680;2023-03-01T06:55:57;27.90;;;17.00;;
13415;SDS011;6779;50.150;8.680;2023-03-01T06:58:24;24.97;;;17.20;;
13415;SDS011;6779;50.150;8.680;2023-03-01T07:00:49;23.97;;;15.53;;
13415;SDS011;6779;50.150;8.680;2023-03-01T07:03:14;27.57;;;17.77;;
13415;SDS011;6779;50.150;8.680;2023-03-01T07:05:40;24.10;;;16.10;;
13415;SDS011;6779;50.150;8.680;2023-03-01T07:08:05;21.93;;;16.47;;
13415;SDS011;6779;50.150;8.680;2023-03-01T07:10:30;26.40;;;16.73;;
13415;SDS011;6779;50.150;8.680;2023-03-01T07:12:56;25.17;;;15.67;;
13415;SDS011;6779;50.150;8.680;2023-03-01T07:15:22;21.33;;;15.40;;
13415;SDS011;6779;50.150;8.680;2023-03-01T07:17:47;26.77;;;16.93;;
13415;SDS011;6779;50.150;8.680;2023-03-01T07:20:15;23.27;;;15.40;;
13415;SDS011;6779;50.150;8.680;2023-03-01T07:22:41;25.67;;;16.03;;
13415;SDS011;6779;50.150;8.680;2023-03-01T07:25:09;27.90;;;17.53;;
13415;SDS011;6779;50.150;8.680;2023-03-01T07:27:35;26.17;;;17.20;;
13415;SDS011;6779;50.150;8.680;2023-03-01T07:30:01;23.97;;;16.70;;
13415;SDS011;6779;50.150;8.680;2023-03-01T07:32:26;25.67;;;16.20;;
13415;SDS011;6779;50.150;8.680;2023-03-01T07:34:52;24.40;;;16.87;;
13415;SDS011;6779;50.150;8.680;2023-03-01T07:37:17;27.83;;;17.27;;
13415;SDS011;6779;50.150;8.680;2023-03-01T07:39:42;26.70;;;16.80;;
13415;SDS011;6779;50.150;8.680;2023-03-01T07:42:08;24.10;;;17.03;;
13415;SDS011;6779;50.150;8.680;2023-03-01T07:44:33;27.33;;;17.77;;
13415;SDS011;6779;50.150;8.680;2023-03-01T07:46:59;24.77;;;16.43;;
13415;SDS011;6779;50.150;8.680;2023-03-01T07:49:25;30.47;;;18.73;;
13415;SDS011;6779;50.150;8.680;2023-03-01T07:51:51;28.80;;;18.80;;
13415;SDS011;6779;50.150;8.680;2023-03-01T07:54:16;28.40;;;17.30;;
13415;SDS011;6779;50.150;8.680;2023-03-01T07:56:42;25.63;;;16.83;;
13415;SDS011;6779;50.150;8.680;2023-03-01T07:59:08;27.70;;;17.70;;
13415;SDS011;6779;50.150;8.680;2023-03-01T08:01:33;24.47;;;17.27;;
13415;SDS011;6779;50.150;8.680;2023-03-01T08:03:58;27.13;;;17.20;;
13415;SDS011;6779;50.150;8.680;2023-03-01T08:06:24;27.03;;;18.30;;
13415;SDS011;6779;50.150;8.680;2023-03-01T08:08:49;25.13;;;17.57;;
13415;SDS011;6779;50.150;8.680;2023-03-01T08:11:15;25.43;;;16.70;;
13415;SDS011;6779;50.150;8.680;2023-03-01T08:13:41;28.00;;;17.53;;
13415;SDS011;6779;50.150;8.680;2023-03-01T08:16:10;23.63;;;17.20;;
13415;SDS011;6779;50.150;8.680;2023-03-01T08:18:36;25.87;;;17.80;;
13415;SDS011;6779;50.150;8.680;2023-03-01T08:21:03;27.60;;;17.27;;
13415;SDS011;6779;50.150;8.680;2023-03-01T08:23:31;28.07;;;16.73;;
13415;SDS011;6779;50.150;8.680;2023-03-01T08:26:04;25.77;;;17.53;;
13415;SDS011;6779;50.150;8.680;2023-03-01T08:28:29;22.30;;;16.63;;
13415;SDS011;6779;50.150;8.680;2023-03-01T08:30:54;24.53;;;16.63;;
13415;SDS011;6779;50.150;8.680;2023-03-01T08:33:20;24.47;;;16.73;;
13415;SDS011;6779;50.150;8.680;2023-03-01T08:35:45;28.23;;;17.77;;
13415;SDS011;6779;50.150;8.680;2023-03-01T08:38:10;25.07;;;17.77;;
13415;SDS011;6779;50.150;8.680;2023-03-01T08:40:35;26.03;;;17.50;;
13415;SDS011;6779;50.150;8.680;2023-03-01T08:43:01;22.03;;;16.10;;
13415;SDS011;6779;50.150;8.680;2023-03-01T08:45:26;27.50;;;16.93;;
13415;SDS011;6779;50.150;8.680;2023-03-01T08:47:52;24.20;;;16.80;;
13415;SDS011;6779;50.150;8.680;2023-03-01T08:50:18;25.10;;;17.43;;
13415;SDS011;6779;50.150;8.680;2023-03-01T08:52:43;25.37;;;17.83;;
13415;SDS011;6779;50.150;8.680;2023-03-01T08:55:08;24.40;;;16.60;;
13415;SDS011;6779;50.150;8.680;2023-03-01T08:57:34;21.70;;;15.70;;
13415;SDS011;6779;50.150;8.680;2023-03-01T08:59:59;26.77;;;17.10;;
13415;SDS011;6779;50.150;8.680;2023-03-01T09:02:25;24.80;;;16.67;;
13415;SDS011;6779;50.150;8.680;2023-03-01T09:04:50;25.00;;;15.80;;
13415;SDS011;6779;50.150;8.680;2023-03-01T09:07:15;21.13;;;15.63;;
13415;SDS011;6779;50.150;8.680;2023-03-01T09:09:41;23.23;;;15.20;;
13415;SDS011;6779;50.150;8.680;2023-03-01T09:12:06;21.17;;;15.33;;
13415;SDS011;6779;50.150;8.680;2023-03-01T09:14:31;23.17;;;15.50;;
13415;SDS011;6779;50.150;8.680;2023-03-01T09:16:57;25.33;;;16.40;;
13415;SDS011;6779;50.150;8.680;2023-03-01T09:19:22;21.93;;;15.80;;
13415;SDS011;6779;50.150;8.680;2023-03-01T09:21:47;22.93;;;16.87;;
13415;SDS011;6779;50.150;8.680;2023-03-01T09:24:21;22.60;;;16.00;;
13415;SDS011;6779;50.150;8.680;2023-03-01T09:26:47;22.43;;;15.93;;
13415;SDS011;6779;50.150;8.680;2023-03-01T09:29:12;20.50;;;16.17;;
13415;SDS011;6779;50.150;8.680;2023-03-01T09:31:39;19.97;;;15.43;;
13415;SDS011;6779;50.150;8.680;2023-03-01T09:34:04;21.37;;;15.47;;
13415;SDS011;6779;50.150;8.680;2023-03-01T09:36:30;20.20;;;14.37;;
13415;SDS011;6779;50.150;8.680;2023-03-01T09:38:56;20.13;;;15.90;;
13415;SDS011;6779;50.150;8.680;2023-03-01T09:41:38;17.90;;;15.00;;
13415;SDS011;6779;50.150;8.680;2023-03-01T09:44:20;20.23;;;15.00;;
13415;SDS011;6779;50.150;8.680;2023-03-01T09:46:46;16.73;;;14.30;;
13415;SDS011;6779;50.150;8.680;2023-03-01T09:49:14;18.23;;;14.83;;
13415;SDS011;6779;50.150;8.680;2023-03-01T09:51:42;18.07;;;16.13;;
13415;SDS011;6779;50.150;8.680;2023-03-01T09:54:13;16.20;;;14.50;;
13415;SDS011;6779;50.150;8.680;2023-03-01T10:02:17;16.13;;;14.60;;
13415;SDS011;6779;50.150;8.680;2023-03-01T10:04:49;18.90;;;17.10;;
13415;SDS011;6779;50.150;8.680;2023-03-01T10:10:07;15.80;;;14.25;;
13415;SDS011;6779;50.150;8.680;2023-03-01T10:12:37;14.70;;;13.40;;
13415;SDS011;6779;50.150;8.680;2023-03-01T10:15:06;13.65;;;12.40;;
13415;SDS011;6779;50.150;8.680;2023-03-01T10:17:39;15.52;;;14.00;;
13415;SDS011;6779;50.150;8.680;2023-03-01T10:20:16;15.77;;;14.15;;
13415;SDS011;6779;50.150;8.680;2023-03-01T10:22:44;14.35;;;12.88;;
13415;SDS011;6779;50.150;8.680;2023-03-01T10:25:15;15.85;;;14.13;;
13415;SDS011;6779;50.150;8.680;2023-03-01T10:30:22;14.80;;;13.30;;
13415;SDS011;6779;50.150;8.680;2023-03-01T10:32:57;15.25;;;13.77;;
13415;SDS011;6779;50.150;8.680;2023-03-01T10:35:24;14.65;;;13.32;;
13415;SDS011;6779;50.150;8.680;2023-03-01T10:38:05;14.18;;;12.88;;
13415;SDS011;6779;50.150;8.680;2023-03-01T10:40:39;14.57;;;13.18;;
13415;SDS011;6779;50.150;8.680;2023-03-01T10:43:15;14.57;;;13.18;;
13415;SDS011;6779;50.150;8.680;2023-03-01T10:45:41;14.35;;;13.05;;
13415;SDS011;6779;50.150;8.680;2023-03-01T10:50:39;15.55;;;14.15;;
13415;SDS011;6779;50.150;8.680;2023-03-01T10:53:15;15.32;;;13.75;;
13415;SDS011;6779;50.150;8.680;2023-03-01T10:55:45;15.82;;;14.43;;
13415;SDS011;6779;50.150;8.680;2023-03-01T10:58:20;14.57;;;13.25;;
13415;SDS011;6779;50.150;8.680;2023-03-01T11:00:48;16.27;;;14.77;;
13415;SDS011;6779;50.150;8.680;2023-03-01T11:03:14;16.03;;;14.30;;
13415;SDS011;6779;50.150;8.680;2023-03-01T11:08:40;14.73;;;13.43;;
13415;SDS011;6779;50.150;8.680;2023-03-01T11:11:29;14.52;;;13.15;;
13415;SDS011;6779;50.150;8.680;2023-03-01T11:16:42;13.85;;;12.55;;
13415;SDS011;6779;50.150;8.680;2023-03-01T11:21:36;14.25;;;13.05;;
13415;SDS011;6779;50.150;8.680;2023-03-01T11:24:04;13.85;;;12.52;;
13415;SDS011;6779;50.150;8.680;2023-03-01T11:26:31;16.38;;;14.73;;
13415;SDS011;6779;50.150;8.680;2023-03-01T11:29:03;15.43;;;13.82;;
13415;SDS011;6779;50.150;8.680;2023-03-01T11:31:30;14.38;;;13.07;;
13415;SDS011;6779;50.150;8.680;2023-03-01T11:34:11;15.32;;;13.93;;
13415;SDS011;6779;50.150;8.680;2023-03-01T11:36:49;15.20;;;13.65;;
13415;SDS011;6779;50.150;8.680;2023-03-01T11:45:06;13.02;;;11.85;;
13415;SDS011;6779;50.150;8.680;2023-03-01T11:50:29;12.90;;;11.70;;
13415;SDS011;6779;50.150;8.680;2023-03-01T11:53:11;12.30;;;11.27;;
13415;SDS011;6779;50.150;8.680;2023-03-01T11:56:22;14.95;;;13.55;;
13415;SDS011;6779;50.150;8.680;2023-03-01T11:59:32;13.73;;;12.35;;
13415;SDS011;6779;50.150;8.680;2023-03-01T12:04:52;12.90;;;11.65;;
13415;SDS011;6779;50.150;8.680;2023-03-01T12:07:39;12.80;;;11.65;;
13415;SDS011;6779;50.150;8.680;2023-03-01T12:12:52;14.47;;;12.97;;
13415;SDS011;6779;50.150;8.680;2023-03-01T12:15:44;14.10;;;12.80;;
13415;SDS011;6779;50.150;8.680;2023-03-01T12:21:38;13.67;;;12.23;;
13415;SDS011;6779;50.150;8.680;2023-03-01T12:24:22;13.90;;;12.57;;
13415;SDS011;6779;50.150;8.680;2023-03-01T12:26:53;13.17;;;11.80;;
13415;SDS011;6779;50.150;8.680;2023-03-01T12:32:01;14.63;;;13.13;;
13415;SDS011;6779;50.150;8.680;2023-03-01T12:40:29;12.47;;;10.87;;
13415;SDS011;6779;50.150;8.680;2023-03-01T12:43:03;13.47;;;12.07;;
13415;SDS011;6779;50.150;8.680;2023-03-01T12:51:03;13.67;;;11.37;;
13415;SDS011;6779;50.150;8.680;2023-03-01T12:53:32;13.70;;;11.10;;
13415;SDS011;6779;50.150;8.680;2023-03-01T12:56:02;12.50;;;11.17;;
13415;SDS011;6779;50.150;8.680;2023-03-01T13:01:45;12.63;;;11.27;;
13415;SDS011;6779;50.150;8.680;2023-03-01T13:04:50;14.17;;;10.60;;
13415;SDS011;6779;50.150;8.680;2023-03-01T13:07:22;12.23;;;10.50;;
13415;SDS011;6779;50.150;8.680;2023-03-01T13:09:56;13.17;;;10.77;;
13415;SDS011;6779;50.150;8.680;2023-03-01T13:18:27;14.00;;;11.67;;
13415;SDS011;6779;50.150;8.680;2023-03-01T13:20:56;14.60;;;11.43;;
13415;SDS011;6779;50.150;8.680;2023-03-01T13:30:56;14.90;;;11.07;;
13415;SDS011;6779;50.150;8.680;2023-03-01T13:35:53;14.63;;;11.23;;
13415;SDS011;6779;50.150;8.680;2023-03-01T13:41:10;13.47;;;11.30;;
13415;SDS011;6779;50.150;8.680;2023-03-01T13:43:37;12.50;;;11.20;;
13415;SDS011;6779;50.150;8.680;2023-03-01T13:46:11;15.37;;;11.13;;
13415;SDS011;6779;50.150;8.680;2023-03-01T13:48:40;13.90;;;12.20;;
13415;SDS011;6779;50.150;8.680;2023-03-01T13:51:09;15.20;;;11.50;;
13415;SDS011;6779;50.150;8.680;2023-03-01T13:53:37;13.53;;;12.13;;
13415;SDS011;6779;50.150;8.680;2023-03-01T13:58:44;14.13;;;11.33;;
13415;SDS011;6779;50.150;8.680;2023-03-01T14:01:20;13.90;;;11.33;;
13415;SDS011;6779;50.150;8.680;2023-03-01T14:03:50;14.17;;;11.33;;
13415;SDS011;6779;50.150;8.680;2023-03-01T14:06:16;12.10;;;10.67;;
13415;SDS011;6779;50.150;8.680;2023-03-01T14:08:45;15.50;;;11.50;;
13415;SDS011;6779;50.150;8.680;2023-03-01T14:14:30;15.70;;;11.57;;
13415;SDS011;6779;50.150;8.680;2023-03-01T14:17:13;11.37;;;10.13;;
13415;SDS011;6779;50.150;8.680;2023-03-01T14:19:46;13.60;;;10.73;;
13415;SDS011;6779;50.150;8.680;2023-03-01T14:24:48;15.27;;;10.07;;
13415;SDS011;6779;50.150;8.680;2023-03-01T14:27:40;14.20;;;10.17;;
13415;SDS011;6779;50.150;8.680;2023-03-01T14:30:11;13.00;;;10.40;;
13415;SDS011;6779;50.150;8.680;2023-03-01T14:32:39;14.17;;;10.60;;
13415;SDS011;6779;50.150;8.680;2023-03-01T14:35:19;14.17;;;10.93;;
13415;SDS011;6779;50.150;8.680;2023-03-01T14:37:52;14.93;;;10.93;;
13415;SDS011;6779;50.150;8.680;2023-03-01T14:40:35;13.43;;;10.67;;
13415;SDS011;6779;50.150;8.680;2023-03-01T14:43:01;13.97;;;10.87;;
13415;SDS011;6779;50.150;8.680;2023-03-01T14:45:33;12.53;;;10.63;;
13415;SDS011;6779;50.150;8.680;2023-03-01T14:47:59;12.70;;;10.93;;
13415;SDS011;6779;50.150;8.680;2023-03-01T14:50:27;15.30;;;10.73;;
13415;SDS011;6779;50.150;8.680;2023-03-01T14:52:55;14.43;;;10.87;;
13415;SDS011;6779;50.150;8.680;2023-03-01T14:55:27;14.63;;;10.87;;
13415;SDS011;6779;50.150;8.680;2023-03-01T14:57:55;14.03;;;10.60;;
13415;SDS011;6779;50.150;8.680;2023-03-01T15:00:25;14.33;;;10.20;;
13415;SDS011;6779;50.150;8.680;2023-03-01T15:02:53;16.67;;;10.13;;
13415;SDS011;6779;50.150;8.680;2023-03-01T15:05:27;12.40;;;10.40;;
13415;SDS011;6779;50.150;8.680;2023-03-01T15:07:55;12.43;;;11.13;;
13415;SDS011;6779;50.150;8.680;2023-03-01T15:10:23;14.73;;;10.20;;
13415;SDS011;6779;50.150;8.680;2023-03-01T15:12:56;16.37;;;10.77;;
13415;SDS011;6779;50.150;8.680;2023-03-01T15:15:35;12.60;;;10.23;;
13415;SDS011;6779;50.150;8.680;2023-03-01T15:18:13;12.93;;;10.10;;
13415;SDS011;6779;50.150;8.680;2023-03-01T15:20:41;13.33;;;10.73;;
13415;SDS011;6779;50.150;8.680;2023-03-01T15:23:06;14.70;;;10.37;;
13415;SDS011;6779;50.150;8.680;2023-03-01T15:25:44;12.83;;;9.67;;
13415;SDS011;6779;50.150;8.680;2023-03-01T15:28:17;12.70;;;10.07;;
13415;SDS011;6779;50.150;8.680;2023-03-01T15:30:45;13.17;;;9.67;;
13415;SDS011;6779;50.150;8.680;2023-03-01T15:35:49;12.77;;;9.63;;
13415;SDS011;6779;50.150;8.680;2023-03-01T15:41:01;10.87;;;8.97;;
13415;SDS011;6779;50.150;8.680;2023-03-01T15:43:39;12.60;;;9.27;;
13415;SDS011;6779;50.150;8.680;2023-03-01T15:46:19;11.60;;;9.33;;
13415;SDS011;6779;50.150;8.680;2023-03-01T15:48:48;15.50;;;10.20;;
13415;SDS011;6779;50.150;8.680;2023-03-01T15:51:17;13.83;;;10.30;;
13415;SDS011;6779;50.150;8.680;2023-03-01T15:53:49;12.10;;;9.90;;
13415;SDS011;6779;50.150;8.680;2023-03-01T15:56:15;26.43;;;11.60;;
13415;SDS011;6779;50.150;8.680;2023-03-01T15:58:40;13.57;;;10.20;;
13415;SDS011;6779;50.150;8.680;2023-03-01T16:01:09;12.93;;;10.00;;
13415;SDS011;6779;50.150;8.680;2023-03-01T16:03:37;13.60;;;10.07;;
13415;SDS011;6779;50.150;8.680;2023-03-01T16:06:03;15.87;;;10.73;;
13415;SDS011;6779;50.150;8.680;2023-03-01T16:08:28;14.27;;;9.57;;
13415;SDS011;6779;50.150;8.680;2023-03-01T16:10:54;13.40;;;10.70;;
13415;SDS011;6779;50.150;8.680;2023-03-01T16:13:19;12.93;;;9.83;;
13415;SDS011;6779;50.150;8.680;2023-03-01T16:15:44;11.67;;;9.40;;
13415;SDS011;6779;50.150;8.680;2023-03-01T16:18:10;13.53;;;9.67;;
13415;SDS011;6779;50.150;8.680;2023-03-01T16:20:36;13.43;;;9.63;;